Aérodrome :
LOGIN :

S'inscrire | Disclaimer

   EN    FR    IT 

 










Légende :    VFR   VFR Marginal   IFR   IFR Intensif   IFR Très Intensif
Visi : 
Plafond : 
>= 8 km
>= 3000ft
5 à 8 km
1000 à 3000 ft
1500m à 5 km
500 à 1000 ft
800 à 1500m
200 à 500 ft
< 800m
< 200 ft
Symboles :   Orages  Brouillard  Fortes neiges  Fortes précipitations  Vent > 20 kt
SIGMETs :   Divers  Orages  Givrage  Turbulence  Onde Orograph.  Cendres Volcan.







- Altitude de l'aérodrome : 978 ft
- Code IATA : LNZ


LOWL - Linz

DERNIER METAR :
  • 141220Z 25008KT 9999 FEW042 BKN048 05/M02 Q1004 NOSIG

METARs EXPIRÉS :
  • 141150Z 24010KT 9999 FEW044 BKN050 05/M01 Q1004 NOSIG
  • 141120Z 24014KT 9999 FEW044 SCT050 BKN110 05/M01 Q1004 NOSIG
  • 141050Z 24011KT 9999 FEW044 SCT090 BKN100 04/M00 Q1004 NOSIG
  • 141020Z 23012KT 9999 FEW060 SCT070 BKN080 04/M00 Q1004 NOSIG
  • 140950Z 24012KT 9999 FEW038 SCT060 BKN080 04/01 Q1004 NOSIG

TAF TAF LOWL
Valide du 14 à 12h jusqu'au 15 à 12h UTC


141115Z 1412/1512 27010KT 9999 SCT040 BKN100 TX05/1413Z TN00/1500Z
BECMG 1412/1415 25005KT
TEMPO 1420/1506 VRB02KT 2000 RASN BKN006
BECMG 1505/1507 27010KT
Pas de NOTAMs connus pour ce terrain.



MET'MAP, la Météo Aéronautique d'un coup d'oeil ! - Copyright ORBIFLY Décembre 2007 - Disclaimer

ORBIFLY MET'MAP TEAM :

Programmation & Développement : Alexandra Zaïnal
Conception & Développement : Baudouin d'Aumeries
Co-Programmation & Développement : Marc-Olivier Méhu
Soutien technique & logistique : Manuel Goepfert

Contact : metmap@orbifly.com




SOURCES & CREDITS :

   NOAA